Ana Sayfa
METAR-TAF:

METAR-TAF

Havaalanları :

Gerbangkertosusila, Endonezya

Enlem: 07-22-47S, Boylam: 112-47-13E, yükseklik: 3 m

METAR: eksik

Saat: 02:09 (19:09 UTC)

Tahmin

Rapor saat 17:00 UTC de 2 saat ve 9 dakika önce yapıldı.
Ayın 10'si saat 18 UTC'den ayın 11'si saat 18 UTC'ye kadar geçerli Tahmin
Rüzgar batıdan 5 kt
Görüş mesafesi: 4000 m
2000 ft yükseklikte az bulutlu
Toz Pusu
Dönüşüyor
ayın 11'si saat 00 UTC'den ayın 11'si saat 02 UTC'ye kadar
Rüzgar doğudan 10 kt
Görüş mesafesi 10 km veya daha fazla
Olasılık 40% :
Geçici
ayın 11'si saat 13 UTC'den ayın 11'si saat 16 UTC'ye kadar
Rüzgar güneybatıdan 15 kt
Görüş mesafesi: 4000 m
1800 ft yükseklikte parçalı bulutlu, Kümülonimbus.
gök gürültülü fırtına, yağmur

TAF: WARR 101700Z 1018/1118 26005KT 4000 HZ FEW020 BECMG 1100/1102 09010KT 9999 NSW PROB40 TEMPO 1113/1116 22015KT 4000 TSRA SCT018CB

4.000'den fazla havaalanı için hava durumu gözlemleri ve tahminleri (METAR ve TAF raporları).

Kullanılabilir istasyonlar harita üzerinde sarı ve kırmızı noktalarla gösterilir.

İstasyonun adını görmek için fareyi noktanın üzerinde gezdirin.

Sonrasında hava gözlem ve tahminlerini görmek için tıklayın.

Haritayı değiştirmek için: yaklaştırmak için siyah artı işaretli yeşil düğmeye ve uzaklaştırmak için de eksi işaretli düğmeye hızla tıklayın; bitişik haritalar için yeşil okları kullanın.


METAR-TAF: